This is the latest recevied weather packets stored in our database for station/object Ostrach. If no packets are shown the sender has not sent any weather packets the latest 10 day(s).
| Time | Temp. | Humidity | Pressure | Rain* | Wind** | Luminosity | Snow |
|---|---|---|---|---|---|---|---|
| 1777703532 | 7.78° C | 75% | 1021.3 hPa | 0 mm | - | - | - |
| 1777701731 | 4.44° C | 86% | 1021.3 hPa | 0 mm | - | - | - |
| 1777699931 | 2.78° C | 88% | 1021.3 hPa | 0 mm | - | - | - |
| 1777698131 | 2.22° C | 87% | 1021.2 hPa | 0 mm | - | - | - |
| 1777696331 | 1.67° C | 86% | 1021.1 hPa | 0 mm | - | - | - |
| 1777694533 | 1.67° C | 85% | 1021 hPa | 0 mm | - | - | - |
| 1777692731 | 2.22° C | 85% | 1021.1 hPa | 0 mm | - | - | - |
| 1777690931 | 2.78° C | 83% | 1021.1 hPa | 0 mm | - | - | - |
| 1777689134 | 3.33° C | 82% | 1021.1 hPa | 0 mm | - | - | - |
| 1777687332 | 3.33° C | 81% | 1021.2 hPa | 0 mm | - | - | - |
| 1777685531 | 4.44° C | 79% | 1021.3 hPa | 0 mm | - | - | - |
| 1777683731 | 5° C | 77% | 1021.3 hPa | 0 mm | - | - | - |
| 1777681929 | 5.56° C | 75% | 1021.4 hPa | 0 mm | - | - | - |
| 1777680129 | 5.56° C | 74% | 1021.6 hPa | 0 mm | - | - | - |
| 1777678330 | 6.11° C | 73% | 1021.7 hPa | 0 mm | - | - | - |
| 1777676530 | 6.67° C | 72% | 1021.7 hPa | 0 mm | - | - | - |
| 1777674730 | 7.22° C | 69% | 1021.8 hPa | 0 mm | - | - | - |
| 1777672931 | 8.33° C | 66% | 1021.8 hPa | 0 mm | - | - | - |
| 1777671130 | 9.44° C | 63% | 1021.9 hPa | 0 mm | - | - | - |
| 1777669330 | 10.56° C | 58% | 1021.9 hPa | 0 mm | - | - | - |
| 1777667529 | 12.22° C | 52% | 1021.9 hPa | 0 mm | - | - | - |
| 1777665732 | 13.33° C | 49% | 1021.8 hPa | 0 mm | - | - | - |
| 1777663929 | 15.56° C | 43% | 1021.6 hPa | 0 mm | - | - | - |
| 1777662130 | 17.22° C | 37% | 1021.4 hPa | 0 mm | - | - | - |
| 1777660330 | 18.33° C | 35% | 1021.2 hPa | 0 mm | - | - | - |
* Rain since midnight (hover to see other rain measurements)
** Current wind speed in m/s (hover to see current wind gust speed)